Time;durP1;ratioP1;P1;durP2;ratioP2;P2;SDS_P1;SDS_P2;PMS_P1;PMS_P2;Temp;Humidity;BMP_temperature;BMP_pressure;BME280_temperature;BME280_humidity;BME280_pressure;Samples;Min_cycle;Max_cycle;Signal;HPM_P1;HPM_P2
2022/05/24 00:02:06;;;;;;;;;;;11.20;99.90;;;;;;5092528;28;19966;-79
2022/05/24 00:04:31;;;;;;;;;;;11.30;99.90;;;;;;5092987;28;19961;-79
2022/05/24 00:06:57;;;;;;;;;;;11.30;99.90;;;;;;5092770;28;19916;-79
2022/05/24 00:09:22;;;;;;;;;;;11.10;99.90;;;;;;5093279;28;19975;-79
2022/05/24 00:11:48;;;;;;;;;;;11.20;99.90;;;;;;5093549;28;20250;-79
2022/05/24 00:14:14;;;;;;;;;;;11.10;99.90;;;;;;5092765;28;19916;-79
2022/05/24 00:16:39;;;;;;;;;;;11.10;99.90;;;;;;5093190;28;19909;-79
2022/05/24 00:19:05;;;;;;;;;;;11.10;99.90;;;;;;5092476;28;19930;-78
2022/05/24 00:21:31;;;;;;;;;;;11.00;99.90;;;;;;5093276;28;19915;-79
2022/05/24 00:23:56;;;;;;;;;;;11.00;99.90;;;;;;5092748;28;20381;-79
2022/05/24 00:26:28;;;;;;;;;;;11.00;99.90;;;;;;5093006;28;20003;-79
2022/05/24 00:28:53;;;;;;;;;;;11.00;99.90;;;;;;5093099;28;19908;-79
2022/05/24 00:31:19;;;;;;;;;;;10.90;99.90;;;;;;5092703;28;20126;-79
2022/05/24 00:33:44;;;;;;;;;;;10.80;99.90;;;;;;5093153;28;19961;-79
2022/05/24 00:36:10;;;;;;;;;;;10.90;99.90;;;;;;5092260;28;19908;-79
2022/05/24 00:38:36;;;;;;;;;;;10.80;99.90;;;;;;5093371;28;19912;-79
2022/05/24 00:41:24;;;;;;;;;;;10.80;99.90;;;;;;5092569;28;20363;-79
2022/05/24 00:43:52;;;;;;;;;;;10.70;99.90;;;;;;5093058;28;20261;-79
2022/05/24 00:46:22;;;;;;;;;;;10.70;99.90;;;;;;5092497;28;19933;-79
2022/05/24 00:48:56;;;;;;;;;;;10.70;99.90;;;;;;5092814;28;20315;-79
2022/05/24 00:51:27;;;;;;;;;;;10.70;99.90;;;;;;5093034;28;19909;-79
2022/05/24 00:53:54;;;;;;;;;;;10.60;99.90;;;;;;5092719;28;20266;-79
2022/05/24 00:56:40;;;;;;;;;;;10.60;99.90;;;;;;5091947;28;19908;-79
2022/05/24 00:59:07;;;;;;;;;;;10.60;99.90;;;;;;5091877;28;19920;-79
2022/05/24 01:01:40;;;;;;;;;;;10.70;99.90;;;;;;5092509;28;19916;-79
2022/05/24 01:04:06;;;;;;;;;;;10.70;99.90;;;;;;5092207;28;19908;-79
2022/05/24 01:06:32;;;;;;;;;;;10.60;99.90;;;;;;5092758;28;20006;-79
2022/05/24 01:09:00;;;;;;;;;;;10.70;99.90;;;;;;5095617;28;20002;-79
2022/05/24 01:11:27;;;;;;;;;;;10.60;99.90;;;;;;5096252;28;20413;-79
2022/05/24 01:13:54;;;;;;;;;;;10.70;99.90;;;;;;5096205;28;19912;-79
2022/05/24 01:16:20;;;;;;;;;;;10.80;99.90;;;;;;5095747;28;19995;-78
2022/05/24 01:18:45;;;;;;;;;;;10.80;99.90;;;;;;5096185;28;19951;-78
2022/05/24 01:21:13;;;;;;;;;;;10.80;99.90;;;;;;5095616;28;19908;-79
2022/05/24 01:23:48;;;;;;;;;;;10.80;99.90;;;;;;5095954;28;19929;-79
2022/05/24 01:26:18;;;;;;;;;;;10.80;99.90;;;;;;5095335;28;19908;-79
2022/05/24 01:28:53;;;;;;;;;;;10.90;99.90;;;;;;5095811;28;19923;-79
2022/05/24 01:31:19;;;;;;;;;;;10.90;99.90;;;;;;5095384;28;20319;-79
2022/05/24 01:36:32;;;;;;;;;;;10.90;99.90;;;;;;5095562;28;20416;-79
2022/05/24 01:39:00;;;;;;;;;;;11.00;99.90;;;;;;5095851;28;19923;-79
2022/05/24 01:41:47;;;;;;;;;;;11.10;99.90;;;;;;5095706;28;19914;-79
2022/05/24 01:44:15;;;;;;;;;;;11.20;99.90;;;;;;5095227;28;19993;-79
2022/05/24 01:46:43;;;;;;;;;;;11.20;99.90;;;;;;5095158;28;20004;-79
2022/05/24 01:49:10;;;;;;;;;;;11.20;99.90;;;;;;5094464;28;20361;-79
2022/05/24 01:51:38;;;;;;;;;;;11.10;99.90;;;;;;5095527;28;19915;-79
2022/05/24 01:54:04;;;;;;;;;;;11.20;99.90;;;;;;5095106;28;20003;-79
2022/05/24 01:56:35;;;;;;;;;;;11.20;99.90;;;;;;5095234;28;20250;-79
2022/05/24 01:59:02;;;;;;;;;;;11.20;99.90;;;;;;5095281;28;19920;-77
2022/05/24 02:01:30;;;;;;;;;;;11.20;99.90;;;;;;5094244;28;20200;-79
2022/05/24 02:03:55;;;;;;;;;;;11.30;99.90;;;;;;5095668;28;19908;-79
2022/05/24 02:06:25;;;;;;;;;;;11.30;99.90;;;;;;5094577;28;19918;-79
2022/05/24 02:08:52;;;;;;;;;;;11.30;99.90;;;;;;5095245;28;19951;-80
2022/05/24 02:11:20;;;;;;;;;;;11.20;99.90;;;;;;5094538;28;19952;-79
2022/05/24 02:13:46;;;;;;;;;;;11.10;99.90;;;;;;5095247;28;19915;-79
2022/05/24 02:16:15;;;;;;;;;;;11.10;99.90;;;;;;5094732;28;19912;-79
2022/05/24 02:18:44;;;;;;;;;;;11.10;99.90;;;;;;5094926;28;19908;-80
2022/05/24 02:21:10;;;;;;;;;;;11.20;99.90;;;;;;5094518;28;19908;-79
2022/05/24 02:23:43;;;;;;;;;;;11.10;99.90;;;;;;5095043;28;20053;-80
2022/05/24 02:26:09;;;;;;;;;;;11.20;99.90;;;;;;5107623;28;19908;-78
2022/05/24 02:28:35;;;;;;;;;;;11.20;99.90;;;;;;5107892;28;20378;-79
2022/05/24 02:31:02;;;;;;;;;;;11.20;99.90;;;;;;5097310;28;19912;-80
2022/05/24 02:33:28;;;;;;;;;;;11.20;99.90;;;;;;5095655;28;19915;-79
2022/05/24 02:35:53;;;;;;;;;;;11.20;99.90;;;;;;5094918;28;19909;-80
2022/05/24 02:38:20;;;;;;;;;;;11.20;99.90;;;;;;5094021;28;20286;-80
2022/05/24 02:43:30;;;;;;;;;;;11.10;99.90;;;;;;5094820;28;19915;-80
2022/05/24 02:45:56;;;;;;;;;;;11.10;99.90;;;;;;5094309;28;20281;-80
2022/05/24 02:48:21;;;;;;;;;;;11.10;99.90;;;;;;5093977;28;19919;-80
2022/05/24 02:50:47;;;;;;;;;;;11.10;99.90;;;;;;5094508;28;20013;-80
2022/05/24 02:53:12;;;;;;;;;;;11.10;99.90;;;;;;5093624;28;19908;-80
2022/05/24 02:55:38;;;;;;;;;;;11.10;99.90;;;;;;5094061;28;20038;-80
2022/05/24 02:58:03;;;;;;;;;;;11.00;99.90;;;;;;5094092;28;20296;-77
2022/05/24 03:00:29;;;;;;;;;;;11.00;99.90;;;;;;5093919;28;19920;-79
2022/05/24 03:02:55;;;;;;;;;;;11.00;99.90;;;;;;5094183;28;19912;-79
2022/05/24 03:05:21;;;;;;;;;;;11.00;99.90;;;;;;5093699;28;19908;-79
2022/05/24 03:10:32;;;;;;;;;;;10.80;99.90;;;;;;5094221;28;19946;-79
2022/05/24 03:15:44;;;;;;;;;;;10.80;99.90;;;;;;5109545;28;20403;-79
2022/05/24 03:18:11;;;;;;;;;;;10.80;99.90;;;;;;5097360;28;20311;-79
2022/05/24 03:20:37;;;;;;;;;;;10.80;99.90;;;;;;5095160;28;19908;-79
2022/05/24 03:23:03;;;;;;;;;;;10.80;99.90;;;;;;5094236;28;20280;-79
2022/05/24 03:25:31;;;;;;;;;;;10.90;99.90;;;;;;5093396;28;20010;-79
2022/05/24 03:27:57;;;;;;;;;;;10.90;99.90;;;;;;5093701;28;19912;-79
2022/05/24 03:30:22;;;;;;;;;;;10.90;99.90;;;;;;5093013;28;20007;-79
2022/05/24 03:32:51;;;;;;;;;;;10.90;99.90;;;;;;5093738;28;19961;-79
2022/05/24 03:35:17;;;;;;;;;;;10.90;99.90;;;;;;5093298;28;19998;-79
2022/05/24 03:37:43;;;;;;;;;;;10.90;99.90;;;;;;5093352;28;20399;-79
2022/05/24 03:40:09;;;;;;;;;;;10.90;99.90;;;;;;5092948;28;19908;-79
2022/05/24 03:42:35;;;;;;;;;;;10.90;99.90;;;;;;5093456;28;19908;-79
2022/05/24 03:45:01;;;;;;;;;;;10.90;99.90;;;;;;5092431;28;20364;-79
2022/05/24 03:47:26;;;;;;;;;;;10.90;99.90;;;;;;5093153;28;20136;-79
2022/05/24 03:49:52;;;;;;;;;;;10.90;99.90;;;;;;5093604;28;19923;-79
2022/05/24 03:52:17;;;;;;;;;;;10.80;99.90;;;;;;5093003;28;19912;-79
2022/05/24 03:54:43;;;;;;;;;;;10.80;99.90;;;;;;5093178;28;20262;-79
2022/05/24 03:59:53;;;;;;;;;;;10.80;99.90;;;;;;5093711;28;19915;-79
2022/05/24 04:02:19;;;;;;;;;;;10.90;99.90;;;;;;5107393;28;19943;-78
2022/05/24 04:04:44;;;;;;;;;;;10.90;99.90;;;;;;5100280;28;19912;-80
2022/05/24 04:07:10;;;;;;;;;;;11.00;99.90;;;;;;5094584;28;19937;-79
2022/05/24 04:09:35;;;;;;;;;;;11.00;99.90;;;;;;5093051;28;19925;-79
2022/05/24 04:15:05;;;;;;;;;;;11.00;99.90;;;;;;5267368;22;19976;-79
2022/05/24 04:17:30;;;;;;;;;;;10.90;99.90;;;;;;5093679;28;19912;-79
2022/05/24 04:19:56;;;;;;;;;;;10.90;99.90;;;;;;5093934;28;20346;-79
2022/05/24 04:22:21;;;;;;;;;;;10.90;99.90;;;;;;5093001;28;19909;-79
2022/05/24 04:24:47;;;;;;;;;;;10.90;99.90;;;;;;5093187;28;19908;-79
2022/05/24 04:27:13;;;;;;;;;;;10.90;99.90;;;;;;5092584;28;20000;-79
2022/05/24 04:29:42;;;;;;;;;;;10.80;99.90;;;;;;5092986;28;20265;-79
2022/05/24 04:32:09;;;;;;;;;;;10.80;99.90;;;;;;5092593;28;20268;-79
2022/05/24 04:34:34;;;;;;;;;;;10.80;99.90;;;;;;5093199;28;19977;-79
2022/05/24 04:37:00;;;;;;;;;;;10.80;99.90;;;;;;5092594;28;20400;-79
2022/05/24 04:39:25;;;;;;;;;;;10.80;99.90;;;;;;5092718;28;20296;-78
2022/05/24 04:44:35;;;;;;;;;;;10.80;99.90;;;;;;5097075;28;20276;-78
2022/05/24 04:47:10;;;;;;;;;;;10.80;99.90;;;;;;5099083;28;19912;-79
2022/05/24 04:49:37;;;;;;;;;;;10.90;99.90;;;;;;5113193;28;19935;-79
2022/05/24 04:52:03;;;;;;;;;;;10.90;99.90;;;;;;5098646;28;19912;-79
2022/05/24 04:54:29;;;;;;;;;;;10.90;99.90;;;;;;5096726;28;19961;-79
2022/05/24 04:56:55;;;;;;;;;;;10.90;99.90;;;;;;5096589;28;20308;-79
2022/05/24 04:59:20;;;;;;;;;;;11.00;99.90;;;;;;5096210;28;20019;-79
2022/05/24 05:01:46;;;;;;;;;;;11.00;99.90;;;;;;5096324;28;19912;-79
2022/05/24 05:04:11;;;;;;;;;;;11.00;99.90;;;;;;5096135;28;19948;-79
2022/05/24 05:06:41;;;;;;;;;;;11.00;99.90;;;;;;5096411;28;20369;-79
2022/05/24 05:09:08;;;;;;;;;;;11.10;99.90;;;;;;5096058;28;20002;-79
2022/05/24 05:11:33;;;;;;;;;;;11.00;99.90;;;;;;5096355;28;19908;-79
2022/05/24 05:13:59;;;;;;;;;;;11.00;99.90;;;;;;5096358;28;19915;-79
2022/05/24 05:16:25;;;;;;;;;;;11.10;99.90;;;;;;5095387;28;20003;-79
2022/05/24 05:18:50;;;;;;;;;;;11.20;99.90;;;;;;5095957;28;19915;-79
2022/05/24 05:21:16;;;;;;;;;;;11.20;99.90;;;;;;5095768;28;19908;-79
2022/05/24 05:23:41;;;;;;;;;;;11.30;99.90;;;;;;5096168;28;20350;-79
2022/05/24 05:26:07;;;;;;;;;;;11.30;99.90;;;;;;5095676;28;19908;-79
2022/05/24 05:28:32;;;;;;;;;;;11.40;99.90;;;;;;5095831;28;19912;-79
2022/05/24 05:33:43;;;;;;;;;;;11.40;99.90;;;;;;5098193;28;19972;-79
2022/05/24 05:36:08;;;;;;;;;;;11.50;99.90;;;;;;5112576;28;19930;-78
2022/05/24 05:38:34;;;;;;;;;;;11.40;99.90;;;;;;5098081;28;20353;-79
2022/05/24 05:41:00;;;;;;;;;;;11.40;99.90;;;;;;5095797;28;19908;-79
2022/05/24 05:43:25;;;;;;;;;;;11.50;99.90;;;;;;5095742;28;19953;-79
2022/05/24 05:45:52;;;;;;;;;;;11.70;99.90;;;;;;5095599;28;19953;-79
2022/05/24 05:48:18;;;;;;;;;;;11.90;99.90;;;;;;5095123;28;19912;-79
2022/05/24 05:50:44;;;;;;;;;;;11.80;99.90;;;;;;5095714;28;19919;-79
2022/05/24 05:53:09;;;;;;;;;;;11.90;99.90;;;;;;5094477;28;19995;-80
2022/05/24 05:55:38;;;;;;;;;;;11.90;99.90;;;;;;5096166;28;19908;-79
2022/05/24 05:58:03;;;;;;;;;;;11.80;99.90;;;;;;5095087;28;19908;-78
2022/05/24 06:00:29;;;;;;;;;;;11.80;99.90;;;;;;5095424;28;19908;-79
2022/05/24 06:02:54;;;;;;;;;;;11.80;99.90;;;;;;5095307;28;19914;-79
2022/05/24 06:05:20;;;;;;;;;;;11.90;99.90;;;;;;5094856;28;19914;-79
2022/05/24 06:07:46;;;;;;;;;;;11.90;99.90;;;;;;5095051;28;19970;-79
2022/05/24 06:10:12;;;;;;;;;;;11.90;99.90;;;;;;5094774;28;19912;-79
2022/05/24 06:12:37;;;;;;;;;;;12.00;99.90;;;;;;5095177;28;19914;-79
2022/05/24 06:15:03;;;;;;;;;;;12.00;99.90;;;;;;5095077;28;20437;-80
2022/05/24 06:17:29;;;;;;;;;;;12.00;99.90;;;;;;5094934;28;19908;-80
2022/05/24 06:19:58;;;;;;;;;;;11.90;99.90;;;;;;5096773;28;19994;-79
2022/05/24 06:22:23;;;;;;;;;;;12.00;99.90;;;;;;5106936;28;19967;-80
2022/05/24 06:24:49;;;;;;;;;;;12.10;99.90;;;;;;5094811;28;19908;-79
2022/05/24 06:27:19;;;;;;;;;;;12.10;99.90;;;;;;5094303;28;19916;-79
2022/05/24 06:29:44;;;;;;;;;;;12.00;99.90;;;;;;5094558;28;19913;-79
2022/05/24 06:32:10;;;;;;;;;;;12.10;99.90;;;;;;5094227;28;19908;-79
2022/05/24 06:34:35;;;;;;;;;;;12.10;99.90;;;;;;5094650;28;19915;-79
2022/05/24 06:37:01;;;;;;;;;;;12.20;99.90;;;;;;5094633;28;19943;-80
2022/05/24 06:39:27;;;;;;;;;;;12.20;99.90;;;;;;5094086;28;20005;-79
2022/05/24 06:41:52;;;;;;;;;;;12.20;99.90;;;;;;5094774;28;19915;-79
2022/05/24 06:44:18;;;;;;;;;;;12.40;99.90;;;;;;5094060;28;20269;-80
2022/05/24 06:46:43;;;;;;;;;;;12.60;99.90;;;;;;5094171;28;19908;-80
2022/05/24 06:49:10;;;;;;;;;;;12.90;99.90;;;;;;5093531;28;19918;-80
2022/05/24 06:51:35;;;;;;;;;;;13.00;99.90;;;;;;5094331;28;19909;-79
2022/05/24 06:54:01;;;;;;;;;;;13.10;99.90;;;;;;5094319;28;19908;-80
2022/05/24 06:56:26;;;;;;;;;;;13.30;99.90;;;;;;5093774;28;19917;-80
2022/05/24 07:02:25;;;;;;;;;;;13.60;99.90;;;;;;5094205;28;19908;-80
2022/05/24 07:04:21;;;;;;;;;;;13.80;99.90;;;;;;5093141;28;19915;-80
2022/05/24 07:06:47;;;;;;;;;;;13.60;99.90;;;;;;5099124;28;19908;-80
2022/05/24 07:09:13;;;;;;;;;;;13.50;99.90;;;;;;5095063;28;19994;-81
2022/05/24 07:11:38;;;;;;;;;;;13.60;99.90;;;;;;5094163;28;19961;-81
2022/05/24 07:14:04;;;;;;;;;;;13.80;99.90;;;;;;5093717;28;20254;-80
2022/05/24 07:16:29;;;;;;;;;;;13.90;99.90;;;;;;5093391;28;20284;-80
2022/05/24 07:18:55;;;;;;;;;;;14.10;99.90;;;;;;5093466;28;19912;-80
2022/05/24 07:21:20;;;;;;;;;;;14.30;99.90;;;;;;5093426;28;19912;-80
2022/05/24 07:23:46;;;;;;;;;;;14.30;99.90;;;;;;5093496;28;19918;-80
2022/05/24 07:26:16;;;;;;;;;;;14.40;99.90;;;;;;5093324;28;19908;-78
2022/05/24 07:28:42;;;;;;;;;;;14.50;99.90;;;;;;5093508;28;19934;-78
2022/05/24 07:31:07;;;;;;;;;;;14.50;99.90;;;;;;5093575;28;20420;-79
2022/05/24 07:33:33;;;;;;;;;;;14.60;99.90;;;;;;5093145;28;19999;-78
2022/05/24 07:35:59;;;;;;;;;;;14.60;99.90;;;;;;5093279;28;19975;-78
2022/05/24 07:38:24;;;;;;;;;;;14.60;99.90;;;;;;5092973;28;19909;-78
2022/05/24 07:46:18;;;;;;;;;;;14.60;99.90;;;;;;5092787;28;19957;-78
2022/05/24 07:48:44;;;;;;;;;;;14.40;99.90;;;;;;5093281;28;20334;-79
2022/05/24 07:51:09;;;;;;;;;;;14.40;99.90;;;;;;5093352;28;20065;-78
2022/05/24 07:53:35;;;;;;;;;;;14.50;99.90;;;;;;5093574;28;19919;-79
2022/05/24 07:56:01;;;;;;;;;;;14.50;99.90;;;;;;5093318;28;19915;-79
2022/05/24 07:58:27;;;;;;;;;;;14.60;99.90;;;;;;5092678;28;20277;-78
2022/05/24 08:00:57;;;;;;;;;;;14.90;99.90;;;;;;5093170;28;20024;-79
2022/05/24 08:03:23;;;;;;;;;;;15.20;99.90;;;;;;5092423;28;19975;-79
2022/05/24 08:05:48;;;;;;;;;;;15.40;99.90;;;;;;5093397;28;19916;-78
2022/05/24 08:08:14;;;;;;;;;;;15.50;99.90;;;;;;5092693;28;19912;-78
2022/05/24 08:10:41;;;;;;;;;;;15.50;99.90;;;;;;5092992;28;20022;-78
2022/05/24 08:13:08;;;;;;;;;;;15.80;99.90;;;;;;5093135;28;19912;-79
2022/05/24 08:15:33;;;;;;;;;;;15.90;99.90;;;;;;5092369;28;19920;-79
2022/05/24 08:17:59;;;;;;;;;;;16.10;99.90;;;;;;5097489;28;19908;-79
2022/05/24 08:20:25;;;;;;;;;;;15.80;99.90;;;;;;5096766;28;19931;-78
2022/05/24 08:22:51;;;;;;;;;;;15.80;99.90;;;;;;5097191;28;20345;-78
2022/05/24 08:25:16;;;;;;;;;;;15.60;99.90;;;;;;5096837;28;19919;-79
2022/05/24 08:27:42;;;;;;;;;;;15.60;99.90;;;;;;5096756;28;19912;-78
2022/05/24 08:30:09;;;;;;;;;;;15.40;99.90;;;;;;5096927;28;19912;-78
2022/05/24 08:32:35;;;;;;;;;;;15.20;99.90;;;;;;5096482;28;20037;-79
2022/05/24 08:35:00;;;;;;;;;;;15.20;99.90;;;;;;5096861;28;19969;-79
2022/05/24 08:37:26;;;;;;;;;;;15.10;99.90;;;;;;5096884;28;19909;-79
2022/05/24 08:39:53;;;;;;;;;;;15.00;99.90;;;;;;5096838;28;19908;-79
2022/05/24 08:42:37;;;;;;;;;;;15.00;99.90;;;;;;5096330;28;19930;-79
2022/05/24 08:48:26;;;;;;;;;;;15.50;99.90;;;;;;5096506;28;20328;-79
2022/05/24 08:51:07;;;;;;;;;;;15.60;99.90;;;;;;5096530;28;19912;-79
2022/05/24 08:53:35;;;;;;;;;;;15.60;99.90;;;;;;5095791;28;19908;-79
2022/05/24 08:56:04;;;;;;;;;;;15.60;99.90;;;;;;5096221;28;19994;-79
2022/05/24 08:58:32;;;;;;;;;;;15.50;99.90;;;;;;5096117;28;19916;-79
2022/05/24 09:00:58;;;;;;;;;;;15.50;99.90;;;;;;5096356;28;19926;-79
2022/05/24 09:03:25;;;;;;;;;;;15.50;99.90;;;;;;5095922;28;19908;-79
2022/05/24 09:06:03;;;;;;;;;;;15.60;99.90;;;;;;5096241;28;19908;-79
2022/05/24 09:08:30;;;;;;;;;;;15.80;99.90;;;;;;5095853;28;19912;-79
2022/05/24 09:10:59;;;;;;;;;;;15.90;99.90;;;;;;5112131;28;19912;-79
2022/05/24 09:13:27;;;;;;;;;;;15.90;99.90;;;;;;5095795;28;20250;-79
2022/05/24 09:15:57;;;;;;;;;;;15.90;99.90;;;;;;5096077;28;19927;-80
2022/05/24 09:18:28;;;;;;;;;;;15.80;99.90;;;;;;5095456;28;19909;-79
2022/05/24 09:20:54;;;;;;;;;;;15.60;99.90;;;;;;5095968;28;20004;-79
2022/05/24 09:23:28;;;;;;;;;;;15.40;99.90;;;;;;5095389;28;20390;-78
2022/05/24 09:26:05;;;;;;;;;;;15.10;99.90;;;;;;5095930;28;19943;-79
2022/05/24 09:28:42;;;;;;;;;;;15.20;99.90;;;;;;5094657;28;19980;-79
2022/05/24 09:31:09;;;;;;;;;;;15.40;99.90;;;;;;5095593;28;20009;-79
2022/05/24 09:33:38;;;;;;;;;;;15.70;99.90;;;;;;5095309;28;20215;-79
2022/05/24 09:36:04;;;;;;;;;;;15.80;99.90;;;;;;5095491;28;19994;-79
2022/05/24 09:38:34;;;;;;;;;;;15.80;99.90;;;;;;5095309;28;19955;-79
2022/05/24 09:41:08;;;;;;;;;;;16.00;99.90;;;;;;5095562;28;19930;-79
2022/05/24 09:43:35;;;;;;;;;;;16.00;99.90;;;;;;5095432;28;19915;-79
2022/05/24 09:46:07;;;;;;;;;;;16.00;99.90;;;;;;5095611;28;19954;-80
2022/05/24 09:48:34;;;;;;;;;;;15.90;99.90;;;;;;5094978;28;19912;-80
2022/05/24 09:51:01;;;;;;;;;;;15.90;99.90;;;;;;5095204;28;19912;-79
2022/05/24 09:53:30;;;;;;;;;;;15.90;99.90;;;;;;5094999;28;20279;-79
2022/05/24 09:56:01;;;;;;;;;;;15.80;99.90;;;;;;5095387;28;19908;-79
2022/05/24 09:58:28;;;;;;;;;;;15.70;99.90;;;;;;5094856;28;19920;-78
2022/05/24 10:00:57;;;;;;;;;;;15.80;99.90;;;;;;5095366;28;20374;-79
2022/05/24 10:03:34;;;;;;;;;;;15.80;99.90;;;;;;5094707;28;19908;-78
2022/05/24 10:06:23;;;;;;;;;;;15.90;99.90;;;;;;5095205;28;19908;-80
2022/05/24 10:08:51;;;;;;;;;;;16.20;99.90;;;;;;5089740;28;19923;-79
2022/05/24 10:11:23;;;;;;;;;;;16.30;99.90;;;;;;5095092;28;19916;-79
2022/05/24 10:13:58;;;;;;;;;;;16.30;99.90;;;;;;5094982;28;19953;-79
2022/05/24 10:16:32;;;;;;;;;;;16.20;99.90;;;;;;5094724;28;20006;-79
2022/05/24 10:19:05;;;;;;;;;;;16.40;99.90;;;;;;5094655;28;19915;-79
2022/05/24 10:21:31;;;;;;;;;;;16.50;99.90;;;;;;5094562;28;19908;-79
2022/05/24 10:24:00;;;;;;;;;;;16.50;99.90;;;;;;5095167;28;19931;-80
2022/05/24 10:26:46;;;;;;;;;;;16.50;99.90;;;;;;5094345;28;20316;-79
2022/05/24 10:29:15;;;;;;;;;;;16.40;99.90;;;;;;5094788;28;19916;-80
2022/05/24 10:31:40;;;;;;;;;;;16.30;99.90;;;;;;5094205;28;19919;-79
2022/05/24 10:40:07;;;;;;;;;;;16.10;99.90;;;;;;5050749;28;20405;-79
2022/05/24 10:42:43;;;;;;;;;;;16.10;99.90;;;;;;5087857;28;20024;-79
2022/05/24 10:45:13;;;;;;;;;;;16.20;99.90;;;;;;5094398;28;19934;-78
2022/05/24 10:47:58;;;;;;;;;;;16.10;99.90;;;;;;5093874;28;19912;-79
2022/05/24 10:50:34;;;;;;;;;;;16.20;99.90;;;;;;5109262;28;20304;-78
2022/05/24 10:53:08;;;;;;;;;;;16.30;99.90;;;;;;5094377;28;19995;-79
2022/05/24 10:55:37;;;;;;;;;;;16.40;99.90;;;;;;5094004;28;19908;-79
2022/05/24 10:58:14;;;;;;;;;;;16.60;99.90;;;;;;5094235;28;19915;-78
2022/05/24 11:00:53;;;;;;;;;;;16.60;99.90;;;;;;5106163;28;19893;-78
2022/05/24 11:03:24;;;;;;;;;;;16.60;99.90;;;;;;5109577;28;19912;-79
2022/05/24 11:05:55;;;;;;;;;;;16.70;99.90;;;;;;5096132;28;19912;-79
2022/05/24 11:08:27;;;;;;;;;;;16.80;99.90;;;;;;5095093;28;19916;-80
2022/05/24 11:10:53;;;;;;;;;;;16.80;99.90;;;;;;5093947;28;19970;-80
2022/05/24 11:13:38;;;;;;;;;;;16.80;99.90;;;;;;5093969;28;19909;-80
2022/05/24 11:16:07;;;;;;;;;;;16.90;99.90;;;;;;5093944;28;19926;-80
2022/05/24 11:18:33;;;;;;;;;;;16.90;99.90;;;;;;5093454;28;19962;-80
2022/05/24 11:21:01;;;;;;;;;;;17.00;99.90;;;;;;5093815;28;19908;-80
2022/05/24 11:23:46;;;;;;;;;;;16.90;99.90;;;;;;5093082;28;19912;-80
2022/05/24 11:26:14;;;;;;;;;;;16.90;99.90;;;;;;5093629;28;19908;-80
2022/05/24 11:28:47;;;;;;;;;;;16.90;99.90;;;;;;5093156;28;19912;-80
2022/05/24 11:31:36;;;;;;;;;;;16.90;99.90;;;;;;5093732;28;20269;-80
2022/05/24 11:34:10;;;;;;;;;;;17.00;99.90;;;;;;5087672;28;19911;-80
2022/05/24 11:36:35;;;;;;;;;;;17.10;99.90;;;;;;5093306;28;19915;-81
2022/05/24 11:39:09;;;;;;;;;;;17.00;99.90;;;;;;5093265;28;19908;-81
2022/05/24 11:41:34;;;;;;;;;;;16.80;99.90;;;;;;5093038;28;20018;-80
2022/05/24 11:44:03;;;;;;;;;;;16.70;99.90;;;;;;5093434;28;20377;-80
2022/05/24 11:46:34;;;;;;;;;;;16.50;99.90;;;;;;5093037;28;20002;-80
2022/05/24 11:49:31;;;;;;;;;;;16.50;99.90;;;;;;5093329;28;19928;-81
2022/05/24 11:51:58;;;;;;;;;;;16.30;99.90;;;;;;5093143;28;19916;-80
2022/05/24 11:54:23;;;;;;;;;;;16.10;99.90;;;;;;5093406;28;19952;-80
2022/05/24 11:56:55;;;;;;;;;;;16.00;99.90;;;;;;5092975;28;20002;-80
2022/05/24 11:59:48;;;;;;;;;;;16.10;99.90;;;;;;5093162;28;19908;-81
2022/05/24 12:02:19;;;;;;;;;;;16.00;99.90;;;;;;5093429;28;19908;-80
2022/05/24 12:07:56;;;;;;;;;;;16.00;99.90;;;;;;5092552;28;20300;-80
2022/05/24 12:10:22;;;;;;;;;;;16.30;99.90;;;;;;5093247;28;19912;-81
2022/05/24 12:13:03;;;;;;;;;;;16.70;99.90;;;;;;5092627;28;19915;-81
2022/05/24 12:15:34;;;;;;;;;;;16.90;99.90;;;;;;5092581;28;19920;-80
2022/05/24 12:18:00;;;;;;;;;;;17.00;99.90;;;;;;5093015;28;19912;-81
2022/05/24 12:20:34;;;;;;;;;;;17.20;99.90;;;;;;5093098;28;19954;-80
2022/05/24 12:23:02;;;;;;;;;;;17.30;99.90;;;;;;5093071;28;19908;-81
2022/05/24 12:25:54;;;;;;;;;;;17.40;99.90;;;;;;5092660;28;19908;-80
2022/05/24 12:28:21;;;;;;;;;;;17.60;99.90;;;;;;5090625;28;20048;-80
2022/05/24 12:30:48;;;;;;;;;;;17.90;99.90;;;;;;5095304;28;20193;-80
2022/05/24 12:33:14;;;;;;;;;;;18.20;99.90;;;;;;5093082;28;19916;-81
2022/05/24 12:35:48;;;;;;;;;;;18.20;99.90;;;;;;5092483;28;20020;-80
2022/05/24 12:38:16;;;;;;;;;;;18.20;99.90;;;;;;5108942;28;19931;-81
2022/05/24 12:40:41;;;;;;;;;;;18.10;99.90;;;;;;5092601;28;19910;-81
2022/05/24 12:43:12;;;;;;;;;;;18.20;99.90;;;;;;5092861;28;19919;-80
2022/05/24 12:45:39;;;;;;;;;;;18.40;99.90;;;;;;5092162;28;20384;-82
2022/05/24 12:48:11;;;;;;;;;;;18.40;99.90;;;;;;5092654;28;19916;-81
2022/05/24 12:50:38;;;;;;;;;;;18.40;99.90;;;;;;5092346;28;19963;-80
2022/05/24 12:53:07;;;;;;;;;;;18.40;99.90;;;;;;5092724;28;20003;-82
2022/05/24 12:58:37;;;;;;;;;;;18.30;99.90;;;;;;5092870;28;20427;-82
2022/05/24 13:01:12;;;;;;;;;;;18.20;99.90;;;;;;5092748;28;19908;-82
2022/05/24 13:03:42;;;;;;;;;;;18.10;99.90;;;;;;5094075;28;19908;-81
2022/05/24 13:06:08;;;;;;;;;;;18.10;99.90;;;;;;5096594;28;19908;-81
2022/05/24 13:08:34;;;;;;;;;;;18.10;99.90;;;;;;5095813;28;20388;-81
2022/05/24 13:11:00;;;;;;;;;;;17.90;99.90;;;;;;5096119;28;19912;-81
2022/05/24 13:13:26;;;;;;;;;;;17.80;99.90;;;;;;5095982;28;19908;-81
2022/05/24 13:15:56;;;;;;;;;;;17.90;99.90;;;;;;5095286;28;20301;-81
2022/05/24 13:18:24;;;;;;;;;;;18.00;99.90;;;;;;5095894;28;20346;-81
2022/05/24 13:20:57;;;;;;;;;;;17.90;99.90;;;;;;5095685;28;19909;-81
2022/05/24 13:23:23;;;;;;;;;;;18.10;99.90;;;;;;5102723;28;20322;-80
2022/05/24 13:25:51;;;;;;;;;;;18.30;99.90;;;;;;5099996;28;19908;-80
2022/05/24 13:28:32;;;;;;;;;;;18.10;99.90;;;;;;5099504;28;20080;-81
2022/05/24 13:33:49;;;;;;;;;;;18.00;99.90;;;;;;5095517;28;19919;-80
2022/05/24 13:36:20;;;;;;;;;;;18.20;99.90;;;;;;5096457;28;19958;-81
2022/05/24 13:39:06;;;;;;;;;;;18.20;99.90;;;;;;5095354;28;19915;-81
2022/05/24 13:41:36;;;;;;;;;;;17.90;99.90;;;;;;5095180;28;20375;-79
2022/05/24 13:44:24;;;;;;;;;;;17.80;99.90;;;;;;5095595;28;19915;-81
2022/05/24 13:47:02;;;;;;;;;;;17.60;99.90;;;;;;5089224;28;19944;-81
2022/05/24 13:49:32;;;;;;;;;;;17.50;99.90;;;;;;5095708;28;19973;-81
2022/05/24 13:52:16;;;;;;;;;;;17.50;99.90;;;;;;5095596;28;20357;-81
2022/05/24 13:54:42;;;;;;;;;;;17.40;99.90;;;;;;5095105;28;19962;-80
2022/05/24 13:57:21;;;;;;;;;;;17.40;99.90;;;;;;5095396;28;20246;-80
2022/05/24 13:59:55;;;;;;;;;;;17.50;99.90;;;;;;5094774;28;19934;-80
2022/05/24 14:02:22;;;;;;;;;;;17.50;99.90;;;;;;5095337;28;19908;-80
2022/05/24 14:04:48;;;;;;;;;;;17.60;99.90;;;;;;5094608;28;19908;-80
2022/05/24 14:07:13;;;;;;;;;;;17.70;99.90;;;;;;5095269;28;20312;-80
2022/05/24 14:09:39;;;;;;;;;;;17.80;99.90;;;;;;5110353;28;19919;-79
2022/05/24 14:12:06;;;;;;;;;;;17.90;99.90;;;;;;5095177;28;19909;-80
2022/05/24 14:14:32;;;;;;;;;;;18.00;99.90;;;;;;5094571;28;20006;-80
2022/05/24 14:16:59;;;;;;;;;;;18.10;99.90;;;;;;5076637;28;20272;-81
2022/05/24 14:19:24;;;;;;;;;;;18.00;99.90;;;;;;5111815;28;20304;-81
2022/05/24 14:21:54;;;;;;;;;;;18.10;99.90;;;;;;5108460;28;19908;-80
2022/05/24 14:24:21;;;;;;;;;;;18.20;99.90;;;;;;5098267;28;19995;-80
2022/05/24 14:26:51;;;;;;;;;;;18.40;99.90;;;;;;5094275;28;20349;-80
2022/05/24 14:29:17;;;;;;;;;;;18.50;99.90;;;;;;5094669;28;19923;-81
2022/05/24 14:31:43;;;;;;;;;;;18.60;99.90;;;;;;5094259;28;19912;-81
2022/05/24 14:34:10;;;;;;;;;;;18.70;99.90;;;;;;5094776;28;19915;-80
2022/05/24 14:36:36;;;;;;;;;;;18.80;99.90;;;;;;5094072;28;19908;-79
2022/05/24 14:39:02;;;;;;;;;;;18.90;99.90;;;;;;5094746;28;20345;-81
2022/05/24 14:41:28;;;;;;;;;;;18.90;99.90;;;;;;5110480;28;20296;-81
2022/05/24 14:44:00;;;;;;;;;;;19.00;99.90;;;;;;5094138;28;19915;-81
2022/05/24 14:46:27;;;;;;;;;;;19.10;99.90;;;;;;5094342;28;20011;-81
2022/05/24 14:48:53;;;;;;;;;;;19.40;99.90;;;;;;5094116;28;19919;-81
2022/05/24 14:51:21;;;;;;;;;;;19.30;99.90;;;;;;5110252;28;19912;-81
2022/05/24 14:53:47;;;;;;;;;;;19.00;99.90;;;;;;5094109;28;19919;-82
2022/05/24 14:56:13;;;;;;;;;;;18.80;99.90;;;;;;5094517;28;19908;-81
2022/05/24 14:58:38;;;;;;;;;;;18.70;99.90;;;;;;5093994;28;19962;-80
2022/05/24 15:01:04;;;;;;;;;;;19.10;99.90;;;;;;5094652;28;19931;-81
2022/05/24 15:03:29;;;;;;;;;;;19.60;99.90;;;;;;5094427;28;19939;-81
2022/05/24 15:05:56;;;;;;;;;;;19.50;99.90;;;;;;5093982;28;20413;-81
2022/05/24 15:16:35;;;;;;;;;;;19.60;99.90;;;;;;5093881;28;19926;-81
2022/05/24 15:19:01;;;;;;;;;;;19.30;99.90;;;;;;5093442;28;19962;-81
2022/05/24 15:21:29;;;;;;;;;;;19.20;99.90;;;;;;5094347;28;19912;-81